Flight Track Log - Related Links

Times and Time Zones

All times are in EDT time to prevent confusion due to time zone crossing. See the SKW6534 flight status page for this flight to view local times or setup timezone preferences in your user account.

Time Position Orientation Groundspeed Altitude Reporting Facility
EDT Latitude Longitude Course Direction KTS MPH feet Rate Location/Type
Fri 03:27:30 PM 43.4647 -112.0553 145° Southeast 205 236 7,300  Level Salt Lake Center
Fri 03:28:00 PM 43.3752 -111.8086 126° Southeast  Level FlightAware Approximate
Fri 03:28:32 PM 43.4581 -111.9494 95° East 241 277 10,100  Level Salt Lake Center
Fri 03:29:00 PM 43.3019 -111.6728 127° Southeast  Level FlightAware Approximate
Fri 03:29:34 PM 43.4114 -111.8608 126° Southeast 281 323 11,800  Level Salt Lake Center
Fri 03:30:00 PM 43.2281 -111.5376 127° Southeast  Level FlightAware Approximate
Fri 03:30:36 PM 43.3506 -111.7481 127° Southeast 319 367 14,100  Level Salt Lake Center
Fri 03:31:00 PM 43.1545 -111.4025 127° Southeast  Level FlightAware Approximate
Fri 03:31:38 PM 43.2967 -111.6486 127° Southeast 331 381 16,100  Level Salt Lake Center
Fri 03:32:39 PM 43.2292 -111.5250 127° Southeast 350 403 18,200 1,951 Climbing Salt Lake Center
Fri 03:33:41 PM 43.1689 -111.4142 127° Southeast 370 426 20,100 1,742 Climbing Salt Lake Center
Fri 03:34:43 PM 43.0997 -111.2836 126° Southeast 379 436 21,800 1,306 Climbing Salt Lake Center
Fri 03:35:45 PM 43.0353 -111.1669 127° Southeast 399 459 22,800 1,016 Climbing Salt Lake Center
Fri 03:36:47 PM 42.9581 -111.0258 127° Southeast 415 478 23,900 1,016 Climbing Salt Lake Center
Fri 03:37:49 PM 42.8892 -110.8997 127° Southeast 429 494 24,900 927 Climbing Salt Lake Center
Fri 03:38:50 PM 42.8197 -110.7753 127° Southeast 431 496 25,800 968 Climbing Salt Lake Center
Fri 03:39:53 PM 42.7375 -110.6275 127° Southeast 437 503 26,900 1,065 Climbing Salt Lake Center
Fri 03:40:54 PM 42.6561 -110.4836 128° Southeast 443 510 28,000 1,024 Climbing Salt Lake Center
Fri 03:41:56 PM 42.5839 -110.3556 127° Southeast 446 513 29,000 919 Climbing Salt Lake Center
Fri 03:42:58 PM 42.5119 -110.2267 127° Southeast 449 517 29,900 774 Climbing Salt Lake Center
Fri 03:44:00 PM 42.4269 -110.0750 127° Southeast 452 520 30,600 585 Climbing Salt Lake Center
Fri 03:45:01 PM 42.3514 -109.9425 128° Southeast 460 529 31,100 488 Climbing Salt Lake Center
Fri 03:46:03 PM 42.2631 -109.7889 128° Southeast 464 534 31,600 484 Climbing Salt Lake Center
Fri 03:47:05 PM 42.1867 -109.6556 128° Southeast 468 539 32,100 532 Climbing Salt Lake Center
Fri 03:48:07 PM 42.0981 -109.4994 127° Southeast 470 541 32,700 439 Climbing Salt Lake Center
Fri 03:49:08 PM 42.0203 -109.3667 128° Southeast 471 542 33,000 146 Climbing Salt Lake Center
Fri 03:50:10 PM 41.9417 -109.2300 128° Southeast 477 549 33,000  Level Salt Lake Center
Fri 03:51:12 PM 41.8472 -109.0686 128° Southeast 486 559 33,000  Level Salt Lake Center
Fri 03:52:13 PM 41.7656 -108.9289 128° Southeast 492 566 33,000  Level Salt Lake Center
Fri 03:53:15 PM 41.6689 -108.7656 128° Southeast 495 570 33,000  Level Salt Lake Center
Fri 03:54:17 PM 41.5858 -108.6250 128° Southeast 499 574 33,000  Level Salt Lake Center
Fri 03:55:18 PM 41.5017 -108.4833 128° Southeast 503 579 33,000  Level Salt Lake Center
Fri 03:56:20 PM 41.4031 -108.3200 129° Southeast 505 581 33,000  Level Salt Lake Center
Fri 03:56:53 PM 41.3592 -108.2478 129° Southeast 506 582 33,000  Level Denver Center
Fri 03:57:55 PM 41.2833 -108.0642 119° Southeast 508 585 33,000  Level Denver Center
Fri 03:58:23 PM 41.2539 -107.9831 116° Southeast 512 589 33,000  Level Salt Lake Center
Fri 03:59:25 PM 41.1883 -107.8253 119° Southeast 510 587 33,000  Level Salt Lake Center
Fri 03:59:59 PM 41.1475 -107.7181 117° Southeast 508 585 33,000  Level Denver Center
Fri 04:01:01 PM 41.0833 -107.5597 118° Southeast 509 586 33,000  Level Denver Center
Fri 04:02:03 PM 41.0208 -107.4000 117° Southeast 510 587 33,000  Level Denver Center
Fri 04:03:05 PM 40.9467 -107.2150 118° Southeast 509 586 33,000  Level Denver Center
Fri 04:04:07 PM 40.8833 -107.0567 118° Southeast 509 586 33,000  Level Denver Center
Fri 04:05:09 PM 40.8081 -106.8714 118° Southeast 512 589 33,000  Level Denver Center
Fri 04:06:11 PM 40.7469 -106.7233 119° Southeast 511 588 33,000 -97 Level Denver Center
Fri 04:07:13 PM 40.6789 -106.5589 119° Southeast 511 588 32,800 -677 Descending Denver Center
Fri 04:08:15 PM 40.6028 -106.3739 118° Southeast 503 579 31,600 -1,355 Descending Denver Center
Fri 04:09:17 PM 40.5283 -106.1919 118° Southeast 504 580 30,000 -1,597 Descending Denver Center
Fri 04:10:19 PM 40.4653 -106.0447 119° Southeast 488 562 28,300 -1,935 Descending Denver Center
Fri 04:11:21 PM 40.4269 -105.8850 107° East 459 528 26,000 -2,081 Descending Denver Center
Fri 04:12:23 PM 40.4028 -105.7256 101° East 444 511 24,000 -1,839 Descending Denver Center
Fri 04:13:25 PM 40.3744 -105.5536 102° East 414 476 22,200 -1,403 Descending Denver Center
Fri 04:14:27 PM 40.3439 -105.4183 106° East 395 455 21,100 -1,452 Descending Denver Center
Fri 04:15:29 PM 40.2781 -105.3131 129° Southeast 379 436 19,200 -1,824 Descending Denver Center
Fri 04:16:32 PM 40.2103 -105.2067 130° Southeast 354 407 17,300 -1,728 Descending Denver Center
Fri 04:17:34 PM 40.1481 -105.1108 130° Southeast 344 396 15,600 -1,403 Descending Denver Center
Fri 04:18:36 PM 40.0883 -105.0172 130° Southeast 336 387 14,400 -1,113 Descending Denver Center
Fri 04:19:38 PM 40.0256 -104.9203 130° Southeast 326 375 13,300 -871 Descending Denver Center
Fri 04:20:40 PM 39.9711 -104.8356 130° Southeast 309 356 12,600 -871 Descending Denver Center
Fri 04:21:42 PM 39.8883 -104.8067 165° South 306 352 11,500 -774 Descending Denver Center
Fri 04:22:44 PM 39.8128 -104.8086 181° South 267 307 11,000 -435 Descending Denver Center
Fri 04:23:46 PM 39.7394 -104.8100 181° South 247 284 10,600 -581 Descending Denver Center
Fri 04:24:48 PM 39.6717 -104.8114 181° South 243 280 9,800 -871 Descending Denver Center
Fri 04:25:50 PM 39.6439 -104.7392 117° Southeast 239 275 8,800 -823 Descending Denver Center
Fri 04:26:52 PM 39.6742 -104.6800 56° Northeast 208 239 8,100 -629 Descending Denver Center
Fri 04:27:54 PM 39.7292 -104.6614 15° North 195 224 7,500 -581 Descending Denver Center

Login

Don't have an account? Register now (free) for customized features, flight alerts, and more!